エカテリンブルク の空港の天気 - METARとTAF

コルツォヴォ空港 ( USSS / SVX ) - ロシア エカテリンブルク
飛行場実況気象(Metar)
観測時間07/16 11:30 YEKT (07/16 06:30 UTC)
風向・風速東南東 3m/s
視程10km以上
天気現象
なし
気温24℃
湿度47%
気圧1017hPa
METARUSSS 160630Z 11003MPS 070V150 CAVOK 24/12 Q1017 R08R/010060 R08L/010060 NOSIG RMK QFE742/0990
過去の天気等 Google飛行場航空写真 Wunderground天気予報

過去48時間のMETAR

飛行場予報(TAF)
発表時間: 7/16 09:51 YEKT (7/16 04:51 UTC)
予報対象時間: 16日11時 YEKT ~ 17日11時 YEKT
風向・風速東南東 3m/s 瞬間風速 10m/s
視程10km以上
全天の4割程度の雲 雲底高度 1220m
TAF USSS 160451Z 1606/1706 12003G10MPS 9999 SCT040